createdAt,value
2022-11-23T00:00:41.853Z,100.00
2022-11-23T00:03:15.510Z,100.00
2022-11-23T00:05:43.226Z,100.00
2022-11-23T00:08:12.328Z,100.00
2022-11-23T00:10:40.006Z,100.00
2022-11-23T00:13:07.689Z,100.00
2022-11-23T00:15:35.600Z,100.00
2022-11-23T00:18:03.597Z,100.00
2022-11-23T00:20:31.550Z,100.00
2022-11-23T00:22:59.214Z,100.00
2022-11-23T00:25:28.341Z,100.00
2022-11-23T00:27:56.059Z,100.00
2022-11-23T00:30:24.268Z,100.00
2022-11-23T00:32:53.569Z,100.00
2022-11-23T00:35:21.321Z,100.00
2022-11-23T00:37:48.987Z,100.00
2022-11-23T00:40:17.583Z,100.00
2022-11-23T00:42:47.057Z,100.00
2022-11-23T00:45:14.725Z,100.00
2022-11-23T00:47:42.374Z,100.00
2022-11-23T00:50:10.782Z,100.00
2022-11-23T00:52:38.532Z,100.00
2022-11-23T00:55:07.237Z,100.00
2022-11-23T00:57:36.012Z,100.00
2022-11-23T01:00:06.581Z,100.00
2022-11-23T01:02:35.678Z,100.00
2022-11-23T01:05:03.847Z,100.00
2022-11-23T01:07:31.701Z,100.00
2022-11-23T01:09:59.471Z,100.00
2022-11-23T01:12:29.088Z,100.00
2022-11-23T01:14:56.802Z,100.00
2022-11-23T01:17:25.925Z,100.00
2022-11-23T01:19:53.572Z,100.00
2022-11-23T01:22:21.412Z,100.00
2022-11-23T01:24:51.797Z,100.00
2022-11-23T01:27:19.548Z,100.00
2022-11-23T01:29:47.254Z,100.00
2022-11-23T01:32:14.916Z,100.00
2022-11-23T01:34:43.958Z,100.00
2022-11-23T01:37:11.976Z,100.00
2022-11-23T01:39:39.684Z,100.00
2022-11-23T01:42:08.692Z,100.00
2022-11-23T01:44:38.553Z,100.00
2022-11-23T01:47:08.175Z,100.00
2022-11-23T01:49:40.474Z,100.00
2022-11-23T01:52:12.730Z,100.00
2022-11-23T01:54:45.606Z,100.00
2022-11-23T01:57:18.889Z,100.00
2022-11-23T01:59:48.077Z,100.00
2022-11-23T02:02:16.732Z,100.00
2022-11-23T02:04:47.093Z,100.00
2022-11-23T02:07:18.141Z,100.00
2022-11-23T02:09:47.110Z,100.00
2022-11-23T02:12:15.753Z,100.00
2022-11-23T02:14:45.777Z,100.00
2022-11-23T02:17:14.049Z,100.00
2022-11-23T02:19:50.164Z,100.00
2022-11-23T02:22:27.888Z,100.00
2022-11-23T02:24:56.693Z,100.00
2022-11-23T02:27:28.461Z,100.00
2022-11-23T02:30:00.712Z,100.00
2022-11-23T02:32:29.221Z,100.00
2022-11-23T02:34:57.285Z,100.00
2022-11-23T02:37:25.085Z,100.00
2022-11-23T02:39:55.386Z,100.00
2022-11-23T02:42:24.375Z,100.00
2022-11-23T02:45:05.553Z,100.00
2022-11-23T02:47:33.315Z,100.00
2022-11-23T02:50:02.046Z,100.00
2022-11-23T02:52:29.804Z,100.00
2022-11-23T02:54:58.090Z,100.00
2022-11-23T02:57:25.712Z,100.00
2022-11-23T02:59:54.707Z,100.00
2022-11-23T03:02:22.440Z,100.00
2022-11-23T03:04:50.544Z,100.00
2022-11-23T03:07:21.738Z,100.00
2022-11-23T03:09:50.939Z,100.00
2022-11-23T03:12:20.823Z,100.00
2022-11-23T03:14:48.601Z,100.00
2022-11-23T03:17:20.224Z,100.00
2022-11-23T03:19:47.905Z,100.00
2022-11-23T03:22:15.812Z,100.00
2022-11-23T03:24:43.580Z,100.00
2022-11-23T03:27:16.665Z,100.00
2022-11-23T03:29:45.319Z,100.00
2022-11-23T03:32:19.841Z,100.00
2022-11-23T03:34:51.319Z,100.00
2022-11-23T03:37:21.641Z,100.00
2022-11-23T03:39:49.732Z,100.00
2022-11-23T03:42:23.229Z,100.00
2022-11-23T03:44:51.704Z,100.00
2022-11-23T03:47:21.319Z,100.00
2022-11-23T03:49:49.416Z,100.00
2022-11-23T03:52:17.115Z,100.00
2022-11-23T03:54:46.979Z,100.00
2022-11-23T03:57:15.131Z,100.00
2022-11-23T03:59:42.795Z,100.00
2022-11-23T04:02:11.136Z,100.00
2022-11-23T04:04:48.984Z,100.00
2022-11-23T04:07:35.175Z,100.00
2022-11-23T04:10:06.816Z,100.00
2022-11-23T04:12:53.433Z,100.00
2022-11-23T04:15:21.660Z,100.00
2022-11-23T04:17:49.852Z,100.00
2022-11-23T04:20:19.348Z,100.00
2022-11-23T04:22:47.103Z,100.00
2022-11-23T04:25:15.527Z,100.00
2022-11-23T04:27:43.423Z,100.00
2022-11-23T04:30:12.201Z,100.00
2022-11-23T04:32:39.969Z,100.00
2022-11-23T04:35:08.301Z,100.00
2022-11-23T04:37:38.576Z,100.00
2022-11-23T04:40:07.637Z,100.00
2022-11-23T04:42:47.136Z,100.00
2022-11-23T04:45:15.501Z,100.00
2022-11-23T04:47:44.654Z,100.00
2022-11-23T04:50:14.856Z,100.00
2022-11-23T04:52:47.710Z,100.00
2022-11-23T04:55:20.414Z,100.00
2022-11-23T04:57:57.354Z,100.00
2022-11-23T05:00:28.905Z,100.00
2022-11-23T05:03:00.726Z,100.00
2022-11-23T05:05:31.940Z,100.00
2022-11-23T05:08:01.598Z,100.00
2022-11-23T05:10:42.034Z,100.00
2022-11-23T05:13:09.764Z,100.00
2022-11-23T05:15:37.831Z,100.00
2022-11-23T05:18:07.937Z,100.00
2022-11-23T05:20:37.645Z,100.00
2022-11-23T05:23:07.288Z,100.00
2022-11-23T05:25:36.853Z,100.00
2022-11-23T05:28:30.174Z,100.00
2022-11-23T05:30:54.617Z,100.00
2022-11-23T05:33:22.506Z,100.00
2022-11-23T05:35:51.176Z,100.00
2022-11-23T05:38:28.730Z,100.00
2022-11-23T05:40:59.960Z,100.00
2022-11-23T05:43:28.254Z,100.00
2022-11-23T05:45:59.279Z,100.00
2022-11-23T05:48:27.738Z,100.00
2022-11-23T05:51:04.857Z,100.00
2022-11-23T05:53:38.067Z,100.00
2022-11-23T05:56:15.682Z,100.00
2022-11-23T05:58:57.119Z,100.00
2022-11-23T06:01:25.013Z,100.00
2022-11-23T06:03:55.869Z,100.00
2022-11-23T06:06:24.572Z,100.00
2022-11-23T06:08:53.562Z,100.00
2022-11-23T06:11:21.326Z,100.00
2022-11-23T06:13:49.344Z,100.00
2022-11-23T06:16:18.453Z,100.00
2022-11-23T06:18:59.370Z,100.00
2022-11-23T06:21:27.016Z,100.00
2022-11-23T06:23:56.064Z,100.00
2022-11-23T06:26:24.309Z,100.00
2022-11-23T06:28:52.478Z,100.00
2022-11-23T06:31:20.250Z,100.00
2022-11-23T06:33:48.041Z,100.00
2022-11-23T06:36:16.530Z,100.00
2022-11-23T06:38:48.955Z,100.00
2022-11-23T06:41:30.929Z,100.00
2022-11-23T06:44:00.346Z,100.00
2022-11-23T06:46:38.722Z,100.00
2022-11-23T06:49:06.967Z,100.00
2022-11-23T06:51:34.846Z,100.00
2022-11-23T06:54:02.587Z,100.00
2022-11-23T06:56:33.521Z,100.00
2022-11-23T06:59:01.246Z,100.00
2022-11-23T07:01:29.237Z,100.00
2022-11-23T07:04:02.778Z,100.00
2022-11-23T07:06:34.397Z,100.00
2022-11-23T07:09:09.363Z,100.00
2022-11-23T07:11:56.479Z,100.00
2022-11-23T07:14:24.263Z,100.00
2022-11-23T07:16:52.950Z,100.00
2022-11-23T07:19:21.781Z,100.00
2022-11-23T07:21:51.200Z,100.00
2022-11-23T07:24:19.025Z,100.00
2022-11-23T07:26:46.782Z,100.00
2022-11-23T07:29:16.651Z,100.00
2022-11-23T07:31:44.535Z,100.00
2022-11-23T07:34:12.994Z,100.00
2022-11-23T07:36:40.791Z,100.00
2022-11-23T07:39:08.826Z,100.00
2022-11-23T07:41:37.755Z,100.00
2022-11-23T07:44:09.170Z,100.00
2022-11-23T07:46:38.220Z,100.00
2022-11-23T07:49:06.034Z,100.00
2022-11-23T07:51:34.164Z,100.00
2022-11-23T07:54:01.841Z,100.00
2022-11-23T07:56:29.607Z,100.00
2022-11-23T07:58:57.803Z,100.00
2022-11-23T08:01:26.105Z,100.00
2022-11-23T08:03:55.127Z,100.00
2022-11-23T08:06:29.201Z,100.00
2022-11-23T08:08:56.854Z,100.00
2022-11-23T08:11:24.541Z,100.00
2022-11-23T08:13:52.370Z,100.00
2022-11-23T08:16:20.343Z,100.00
2022-11-23T08:18:50.611Z,100.00
2022-11-23T08:21:19.662Z,100.00
2022-11-23T08:23:47.537Z,100.00
2022-11-23T08:26:15.338Z,100.00
2022-11-23T08:28:43.080Z,100.00
2022-11-23T08:31:12.343Z,100.00
2022-11-23T08:33:40.754Z,100.00
2022-11-23T08:36:10.109Z,100.00
2022-11-23T08:38:39.140Z,100.00
2022-11-23T08:41:07.033Z,100.00
2022-11-23T08:43:35.632Z,100.00
2022-11-23T08:46:10.867Z,100.00
2022-11-23T08:48:39.255Z,100.00
2022-11-23T08:51:07.732Z,100.00
2022-11-23T08:53:35.702Z,100.00
2022-11-23T08:56:07.593Z,100.00
2022-11-23T08:58:36.667Z,100.00
2022-11-23T09:01:09.135Z,100.00
2022-11-23T09:03:37.008Z,100.00
2022-11-23T09:06:04.944Z,100.00
2022-11-23T09:08:32.861Z,100.00
2022-11-23T09:11:01.250Z,100.00
2022-11-23T09:13:30.832Z,100.00
2022-11-23T09:15:59.742Z,100.00
2022-11-23T09:18:27.898Z,100.00
2022-11-23T09:20:55.591Z,100.00
2022-11-23T09:23:23.715Z,100.00
2022-11-23T09:25:51.387Z,100.00
2022-11-23T09:28:19.600Z,100.00
2022-11-23T09:30:49.036Z,100.00
2022-11-23T09:33:16.718Z,100.00
2022-11-23T09:35:44.463Z,100.00
2022-11-23T09:38:12.158Z,100.00
2022-11-23T09:40:41.818Z,100.00
2022-11-23T09:43:28.745Z,100.00
2022-11-23T09:46:04.266Z,100.00
2022-11-23T09:48:44.719Z,100.00
2022-11-23T09:51:17.172Z,100.00
2022-11-23T09:53:50.121Z,100.00
2022-11-23T09:56:20.577Z,100.00
2022-11-23T09:58:54.452Z,100.00
2022-11-23T10:01:23.725Z,100.00
2022-11-23T10:03:52.222Z,100.00
2022-11-23T10:06:21.768Z,100.00
2022-11-23T10:09:00.842Z,100.00
2022-11-23T10:12:05.773Z,100.00
2022-11-23T10:14:49.546Z,100.00
2022-11-23T10:17:30.450Z,100.00
2022-11-23T10:20:14.228Z,100.00
2022-11-23T10:22:49.093Z,100.00
2022-11-23T10:25:20.349Z,100.00
2022-11-23T10:27:50.349Z,100.00
2022-11-23T10:30:20.485Z,100.00
2022-11-23T10:32:55.113Z,100.00
2022-11-23T10:35:29.075Z,100.00
2022-11-23T10:38:15.060Z,100.00
2022-11-23T10:40:53.607Z,100.00
2022-11-23T10:43:26.214Z,100.00
2022-11-23T10:46:24.852Z,100.00
2022-11-23T10:48:54.568Z,100.00
2022-11-23T10:51:28.822Z,100.00
2022-11-23T10:54:04.938Z,100.00
2022-11-23T10:56:34.035Z,100.00
2022-11-23T10:59:01.960Z,100.00
2022-11-23T11:01:30.663Z,100.00
2022-11-23T11:04:04.464Z,100.00
2022-11-23T11:06:36.040Z,100.00
2022-11-23T11:09:10.810Z,100.00
2022-11-23T11:11:47.768Z,100.00
2022-11-23T11:14:17.928Z,100.00
2022-11-23T11:16:50.194Z,100.00
2022-11-23T11:19:28.354Z,100.00
2022-11-23T11:21:56.790Z,100.00
2022-11-23T11:24:32.656Z,100.00
2022-11-23T11:27:03.696Z,100.00
2022-11-23T11:29:39.167Z,100.00
2022-11-23T11:32:13.440Z,100.00
2022-11-23T11:34:47.559Z,100.00
2022-11-23T11:37:23.467Z,100.00
2022-11-23T11:39:56.910Z,100.00
2022-11-23T11:42:34.300Z,100.00
2022-11-23T11:45:06.228Z,100.00
2022-11-23T11:47:38.713Z,100.00
2022-11-23T11:50:20.377Z,100.00
2022-11-23T11:52:52.567Z,100.00
2022-11-23T11:55:25.077Z,100.00
2022-11-23T11:57:57.296Z,100.00
2022-11-23T12:00:25.875Z,100.00
2022-11-23T12:03:03.192Z,100.00
2022-11-23T12:05:41.037Z,99.31
2022-11-23T12:08:14.043Z,99.19
2022-11-23T12:10:46.093Z,97.42
2022-11-23T12:13:16.902Z,98.28
2022-11-23T12:15:50.161Z,98.01
2022-11-23T12:18:56.593Z,97.60
2022-11-23T12:21:40.491Z,94.81
2022-11-23T12:24:18.606Z,94.30
2022-11-23T12:26:53.152Z,94.15
2022-11-23T12:29:46.707Z,95.34
2022-11-23T12:32:24.478Z,97.00
2022-11-23T12:35:11.816Z,95.21
2022-11-23T12:37:56.571Z,92.38
2022-11-23T12:40:34.146Z,92.15
2022-11-23T12:43:04.914Z,94.19
2022-11-23T12:45:53.711Z,92.43
2022-11-23T12:48:37.911Z,92.68
2022-11-23T12:51:17.549Z,92.63
2022-11-23T12:53:55.739Z,95.24
2022-11-23T12:56:42.957Z,93.59
2022-11-23T12:59:12.437Z,91.50
2022-11-23T13:01:45.827Z,93.03
2022-11-23T13:04:43.600Z,91.72
2022-11-23T13:07:51.122Z,92.20
2022-11-23T13:10:36.654Z,92.10
2022-11-23T13:13:25.717Z,92.83
2022-11-23T13:16:23.112Z,93.83
2022-11-23T13:19:07.566Z,94.47
2022-11-23T13:21:38.876Z,94.65
2022-11-23T13:24:26.005Z,96.87
2022-11-23T13:27:31.455Z,97.48
2022-11-23T13:30:09.690Z,97.75
2022-11-23T13:32:54.115Z,98.94
2022-11-23T13:35:50.037Z,98.24
2022-11-23T13:38:26.788Z,95.43
2022-11-23T13:40:54.886Z,96.41
2022-11-23T13:43:27.306Z,96.61
2022-11-23T13:46:24.866Z,98.42
2022-11-23T13:48:57.089Z,96.97
2022-11-23T13:51:28.133Z,97.57
2022-11-23T13:54:02.937Z,96.61
2022-11-23T13:56:34.788Z,97.33
2022-11-23T13:59:30.209Z,95.06
2022-11-23T14:02:27.902Z,89.63
2022-11-23T14:05:34.189Z,89.35
2022-11-23T14:08:04.323Z,87.78
2022-11-23T14:10:33.191Z,88.30
2022-11-23T14:13:06.049Z,87.54
2022-11-23T14:15:37.205Z,86.37
2022-11-23T14:18:31.547Z,86.31
2022-11-23T14:21:13.846Z,85.45
2022-11-23T14:24:15.588Z,87.21
2022-11-23T14:26:52.948Z,88.50
2022-11-23T14:29:57.148Z,88.14
2022-11-23T14:32:41.324Z,89.21
2022-11-23T14:35:24.940Z,89.72
2022-11-23T14:38:10.394Z,89.47
2022-11-23T14:40:52.549Z,91.37
2022-11-23T14:43:20.958Z,91.86
2022-11-23T14:45:49.525Z,92.34
2022-11-23T14:48:24.968Z,93.57
2022-11-23T14:51:01.285Z,94.16
2022-11-23T14:53:31.975Z,94.84
2022-11-23T14:56:00.268Z,95.54
2022-11-23T14:58:31.506Z,95.59
2022-11-23T15:01:01.364Z,96.63
2022-11-23T15:06:25.608Z,96.96
2022-11-23T15:09:03.782Z,96.40
2022-11-23T15:11:35.357Z,97.07
2022-11-23T15:14:03.408Z,97.53
2022-11-23T15:16:40.107Z,99.06
2022-11-23T15:19:19.027Z,99.83
2022-11-23T15:21:49.480Z,99.62
2022-11-23T15:24:25.580Z,100.00
2022-11-23T15:26:54.217Z,100.00
2022-11-23T15:29:36.949Z,100.00
2022-11-23T15:32:30.573Z,99.56
2022-11-23T15:35:02.523Z,99.41
2022-11-23T15:37:32.362Z,100.00
2022-11-23T15:40:01.023Z,99.92
2022-11-23T15:42:29.861Z,99.62
2022-11-23T15:44:58.858Z,99.57
2022-11-23T15:47:30.794Z,99.56
2022-11-23T15:50:02.008Z,99.41
2022-11-23T15:52:35.822Z,99.09
2022-11-23T15:55:09.688Z,97.65
2022-11-23T15:57:39.329Z,97.08
2022-11-23T16:00:09.344Z,95.29
2022-11-23T16:02:40.179Z,94.95
2022-11-23T16:05:14.561Z,95.26
2022-11-23T16:07:54.814Z,94.52
2022-11-23T16:10:24.417Z,95.16
2022-11-23T16:12:54.969Z,96.15
2022-11-23T16:15:41.580Z,96.97
2022-11-23T16:18:21.816Z,96.65
2022-11-23T16:20:52.268Z,96.33
2022-11-23T16:23:24.746Z,96.12
2022-11-23T16:26:00.042Z,96.91
2022-11-23T16:28:30.449Z,97.32
2022-11-23T16:30:58.553Z,99.02
2022-11-23T16:33:26.807Z,100.00
2022-11-23T16:35:55.567Z,100.00
2022-11-23T16:38:25.473Z,100.00
2022-11-23T16:40:53.309Z,100.00
2022-11-23T16:43:22.255Z,100.00
2022-11-23T16:45:52.533Z,100.00
2022-11-23T16:48:43.007Z,100.00
2022-11-23T16:51:14.439Z,100.00
2022-11-23T16:54:16.185Z,100.00
2022-11-23T16:56:33.268Z,100.00
2022-11-23T16:59:01.013Z,100.00
2022-11-23T17:01:31.337Z,100.00
2022-11-23T17:03:59.213Z,100.00
2022-11-23T17:06:26.969Z,100.00
2022-11-23T17:09:03.107Z,100.00
2022-11-23T17:11:31.091Z,100.00
2022-11-23T17:13:59.802Z,100.00
2022-11-23T17:16:27.878Z,100.00
2022-11-23T17:18:55.666Z,100.00
2022-11-23T17:21:23.529Z,100.00
2022-11-23T17:23:51.952Z,100.00
2022-11-23T17:26:31.934Z,100.00
2022-11-23T17:29:01.899Z,100.00
2022-11-23T17:31:29.796Z,100.00
2022-11-23T17:33:57.679Z,100.00
2022-11-23T17:36:26.111Z,100.00
2022-11-23T17:38:54.844Z,100.00
2022-11-23T17:41:22.969Z,100.00
2022-11-23T17:43:52.883Z,100.00
2022-11-23T17:46:23.727Z,100.00
2022-11-23T17:48:55.202Z,100.00
2022-11-23T17:51:23.255Z,100.00
2022-11-23T17:53:52.206Z,100.00
2022-11-23T17:56:22.458Z,100.00
2022-11-23T17:58:53.090Z,100.00
2022-11-23T18:01:22.609Z,100.00
2022-11-23T18:03:50.634Z,100.00
2022-11-23T18:06:21.401Z,100.00
2022-11-23T18:08:51.675Z,100.00
2022-11-23T18:11:20.341Z,100.00
2022-11-23T18:13:50.638Z,100.00
2022-11-23T18:16:20.639Z,100.00
2022-11-23T18:18:48.554Z,100.00
2022-11-23T18:21:17.565Z,100.00
2022-11-23T18:23:45.710Z,100.00
2022-11-23T18:26:21.915Z,100.00
2022-11-23T18:28:50.680Z,100.00
2022-11-23T18:31:20.442Z,100.00
2022-11-23T18:33:48.629Z,100.00
2022-11-23T18:36:16.751Z,100.00
2022-11-23T18:38:45.731Z,100.00
2022-11-23T18:41:14.333Z,100.00
2022-11-23T18:43:42.024Z,100.00
2022-11-23T18:46:11.511Z,100.00
2022-11-23T18:48:41.185Z,100.00
2022-11-23T18:51:11.765Z,100.00
2022-11-23T18:53:40.905Z,100.00
2022-11-23T18:56:10.268Z,100.00
2022-11-23T18:58:40.150Z,100.00
2022-11-23T19:01:12.231Z,100.00
2022-11-23T19:03:44.407Z,100.00
2022-11-23T19:06:14.359Z,100.00
2022-11-23T19:08:43.948Z,100.00
2022-11-23T19:11:17.973Z,100.00
2022-11-23T19:13:48.819Z,100.00
2022-11-23T19:16:18.357Z,100.00
2022-11-23T19:18:48.736Z,100.00
2022-11-23T19:21:18.168Z,100.00
2022-11-23T19:23:50.441Z,100.00
2022-11-23T19:26:18.549Z,100.00
2022-11-23T19:28:46.641Z,100.00
2022-11-23T19:31:16.702Z,100.00
2022-11-23T19:33:45.825Z,100.00
2022-11-23T19:36:17.870Z,100.00
2022-11-23T19:38:45.917Z,100.00
2022-11-23T19:41:14.481Z,100.00
2022-11-23T19:43:42.518Z,100.00
2022-11-23T19:46:13.295Z,100.00
2022-11-23T19:48:42.148Z,100.00
2022-11-23T19:51:13.612Z,100.00
2022-11-23T19:53:46.215Z,100.00
2022-11-23T19:56:16.251Z,100.00
2022-11-23T19:58:45.430Z,100.00
2022-11-23T20:01:15.022Z,100.00
2022-11-23T20:03:46.020Z,100.00
2022-11-23T20:06:16.260Z,100.00
2022-11-23T20:08:46.117Z,100.00
2022-11-23T20:11:16.493Z,100.00
2022-11-23T20:13:44.769Z,100.00
2022-11-23T20:16:14.880Z,100.00
2022-11-23T20:18:42.940Z,100.00
2022-11-23T20:21:12.771Z,100.00
2022-11-23T20:23:41.206Z,100.00
2022-11-23T20:26:14.442Z,100.00
2022-11-23T20:28:42.567Z,100.00
2022-11-23T20:31:20.067Z,100.00
2022-11-23T20:33:50.487Z,100.00
2022-11-23T20:36:20.736Z,100.00
2022-11-23T20:38:49.234Z,100.00
2022-11-23T20:41:20.029Z,100.00
2022-11-23T20:43:49.805Z,100.00
2022-11-23T20:46:38.112Z,100.00
2022-11-23T20:49:06.059Z,100.00
2022-11-23T20:51:33.829Z,100.00
2022-11-23T20:54:01.541Z,100.00
2022-11-23T20:56:32.070Z,100.00
2022-11-23T20:59:00.886Z,100.00
2022-11-23T21:01:29.469Z,100.00
2022-11-23T21:03:59.228Z,100.00
2022-11-23T21:06:28.372Z,100.00
2022-11-23T21:08:56.320Z,100.00
2022-11-23T21:11:43.798Z,100.00
2022-11-23T21:14:18.246Z,100.00
2022-11-23T21:16:52.708Z,100.00
2022-11-23T21:19:21.816Z,100.00
2022-11-23T21:21:49.676Z,100.00
2022-11-23T21:24:17.629Z,100.00
2022-11-23T21:26:46.126Z,100.00
2022-11-23T21:29:16.237Z,100.00
2022-11-23T21:31:45.506Z,100.00
2022-11-23T21:34:19.113Z,100.00
2022-11-23T21:36:46.990Z,100.00
2022-11-23T21:39:15.374Z,100.00
2022-11-23T21:41:43.247Z,100.00
2022-11-23T21:44:11.777Z,100.00
2022-11-23T21:46:42.044Z,100.00
2022-11-23T21:49:10.795Z,100.00
2022-11-23T21:51:39.464Z,100.00
2022-11-23T21:54:09.895Z,100.00
2022-11-23T21:56:37.890Z,100.00
2022-11-23T21:59:05.971Z,100.00
2022-11-23T22:01:35.554Z,100.00
2022-11-23T22:04:08.678Z,100.00
2022-11-23T22:06:36.883Z,100.00
2022-11-23T22:09:06.403Z,100.00
2022-11-23T22:11:35.801Z,100.00
2022-11-23T22:14:07.244Z,100.00
2022-11-23T22:16:36.746Z,100.00
2022-11-23T22:19:06.852Z,100.00
2022-11-23T22:21:36.697Z,100.00
2022-11-23T22:24:05.760Z,100.00
2022-11-23T22:26:33.953Z,100.00
2022-11-23T22:29:05.949Z,100.00
2022-11-23T22:31:35.203Z,100.00
2022-11-23T22:34:05.524Z,100.00
2022-11-23T22:36:34.864Z,100.00
2022-11-23T22:39:05.114Z,100.00
2022-11-23T22:41:36.331Z,100.00
2022-11-23T22:44:05.205Z,100.00
2022-11-23T22:46:33.082Z,100.00
2022-11-23T22:49:01.804Z,100.00
2022-11-23T22:51:30.543Z,100.00
2022-11-23T22:54:01.233Z,100.00
2022-11-23T22:56:30.910Z,100.00
2022-11-23T22:58:59.767Z,100.00
2022-11-23T23:01:30.114Z,100.00
2022-11-23T23:04:00.502Z,100.00
2022-11-23T23:06:30.190Z,100.00
2022-11-23T23:09:01.178Z,100.00
2022-11-23T23:11:31.353Z,100.00
2022-11-23T23:13:59.781Z,100.00
2022-11-23T23:16:28.754Z,100.00
2022-11-23T23:18:57.683Z,100.00
2022-11-23T23:21:27.422Z,100.00
2022-11-23T23:23:57.259Z,100.00
2022-11-23T23:26:27.196Z,100.00
2022-11-23T23:28:56.354Z,100.00
2022-11-23T23:31:25.204Z,100.00
2022-11-23T23:33:53.806Z,100.00
2022-11-23T23:36:23.196Z,100.00
2022-11-23T23:38:51.196Z,100.00
2022-11-23T23:41:19.458Z,100.00
2022-11-23T23:43:48.864Z,100.00
2022-11-23T23:46:17.117Z,100.00
2022-11-23T23:48:44.902Z,100.00
2022-11-23T23:51:14.427Z,100.00
2022-11-23T23:53:42.914Z,100.00
2022-11-23T23:56:15.001Z,100.00
2022-11-23T23:58:42.999Z,100.00
